Time;durP1;ratioP1;P1;durP2;ratioP2;P2;SDS_P1;SDS_P2;PMS_P1;PMS_P2;Temp;Humidity;BMP_temperature;BMP_pressure;BME280_temperature;BME280_humidity;BME280_pressure;Samples;Min_cycle;Max_cycle;Signal;HPM_P1;HPM_P2
2022/03/01 00:02:00;;;;;;;12.85;7.75;;;6.60;73.50;;;5.19;59.68;101864.66;4992668;28;20069;-89
2022/03/01 00:04:28;;;;;;;12.63;7.43;;;6.60;73.70;;;5.13;57.57;101861.56;4991042;28;20085;-89
2022/03/01 00:06:55;;;;;;;12.18;7.13;;;6.60;73.60;;;5.00;58.40;101856.22;4991505;28;20416;-88
2022/03/01 00:09:22;;;;;;;12.82;7.30;;;6.60;73.00;;;4.87;58.88;101856.28;4975608;28;20046;-89
2022/03/01 00:11:50;;;;;;;12.73;7.45;;;6.60;73.00;;;4.76;59.97;101858.91;4991183;28;20471;-89
2022/03/01 00:14:18;;;;;;;13.48;7.53;;;6.50;73.50;;;4.80;59.95;101855.03;4974870;28;20137;-89
2022/03/01 00:16:45;;;;;;;12.13;7.30;;;6.40;73.50;;;4.66;59.97;101859.63;4993015;28;20045;-89
2022/03/01 00:19:13;;;;;;;12.90;7.32;;;6.40;73.70;;;4.64;59.50;101855.28;4974919;28;20140;-89
2022/03/01 00:21:40;;;;;;;14.32;7.57;;;6.40;74.00;;;4.62;60.32;101857.25;4974637;28;20408;-89
2022/03/01 00:24:07;;;;;;;12.57;8.18;;;6.30;74.10;;;4.57;59.93;101849.50;4991259;28;20096;-89
2022/03/01 00:26:35;;;;;;;14.50;7.82;;;6.30;74.60;;;4.45;60.26;101858.47;4992347;28;20039;-89
2022/03/01 00:29:02;;;;;;;13.25;7.78;;;6.40;74.50;;;4.42;60.23;101858.72;4991429;28;20050;-88
2022/03/01 00:31:31;;;;;;;14.10;7.65;;;6.20;73.90;;;4.28;61.03;101855.19;4990548;28;20176;-89
2022/03/01 00:33:58;;;;;;;13.85;7.78;;;6.20;74.50;;;4.15;61.81;101859.72;4974768;28;20046;-89
2022/03/01 00:36:25;;;;;;;14.20;7.72;;;6.10;75.10;;;4.08;61.51;101864.69;4974102;28;20061;-88
2022/03/01 00:38:52;;;;;;;13.02;7.82;;;6.00;75.50;;;4.00;61.65;101858.09;4974649;28;20498;-88
2022/03/01 00:41:20;;;;;;;12.80;7.18;;;6.00;74.90;;;3.91;62.27;101857.78;4974339;28;20042;-88
2022/03/01 00:43:47;;;;;;;15.13;7.72;;;6.00;75.90;;;3.84;63.23;101853.78;4990593;28;20519;-88
2022/03/01 00:46:14;;;;;;;14.52;7.57;;;5.90;76.40;;;3.78;63.94;101851.53;4973698;28;20504;-89
2022/03/01 00:48:43;;;;;;;12.63;7.88;;;5.90;76.10;;;3.72;63.74;101849.28;4997634;28;20100;-89
2022/03/01 00:51:10;;;;;;;14.07;7.78;;;5.90;76.20;;;3.62;64.04;101850.91;5010105;28;20488;-89
2022/03/01 00:53:37;;;;;;;14.13;7.88;;;5.80;76.10;;;3.61;64.44;101844.63;5010140;28;20052;-89
2022/03/01 00:56:05;;;;;;;13.30;7.88;;;5.70;76.90;;;3.64;64.14;101846.28;5026561;28;20085;-89
2022/03/01 00:58:33;;;;;;;14.35;7.70;;;5.70;76.90;;;3.53;65.27;101853.25;5009546;28;20518;-88
2022/03/01 01:01:00;;;;;;;14.32;7.30;;;5.70;77.10;;;3.46;64.74;101849.25;5009467;28;20100;-88
2022/03/01 01:03:27;;;;;;;13.45;7.65;;;5.70;76.90;;;3.43;65.58;101852.16;5009959;28;20056;-89
2022/03/01 01:05:56;;;;;;;12.27;7.30;;;5.70;77.00;;;3.40;65.14;101851.50;5010798;28;20451;-88
2022/03/01 01:08:23;;;;;;;15.48;8.32;;;5.60;77.00;;;3.35;65.80;101845.56;5026074;28;20046;-89
2022/03/01 01:10:51;;;;;;;12.55;7.82;;;5.60;77.40;;;3.32;66.25;101847.50;5010781;28;20115;-88
2022/03/01 01:13:19;;;;;;;12.30;7.50;;;5.60;77.40;;;3.32;65.94;101839.44;5009671;28;20074;-88
2022/03/01 01:15:46;;;;;;;13.15;8.02;;;5.60;77.50;;;3.33;65.33;101838.47;4991421;28;20504;-88
2022/03/01 01:18:14;;;;;;;14.73;8.23;;;5.50;77.70;;;3.26;65.03;101844.38;5010513;28;20125;-88
2022/03/01 01:20:42;;;;;;;14.82;7.57;;;5.40;77.40;;;3.19;66.21;101843.94;5008318;28;20096;-88
2022/03/01 01:23:11;;;;;;;13.55;7.60;;;5.40;77.70;;;3.13;66.62;101845.19;5009282;28;20136;-89
2022/03/01 01:25:39;;;;;;;13.68;7.97;;;5.30;78.10;;;3.19;66.00;101851.16;5010635;28;20050;-89
2022/03/01 01:28:06;;;;;;;14.70;7.72;;;5.20;78.60;;;3.22;66.47;101848.22;5010946;28;20074;-89
2022/03/01 01:30:35;;;;;;;11.88;7.00;;;5.20;79.00;;;3.34;66.38;101836.66;5008609;28;20056;-88
2022/03/01 01:33:04;;;;;;;14.68;8.45;;;5.50;79.40;;;3.43;66.47;101840.56;5010676;28;20120;-88
2022/03/01 01:35:35;;;;;;;13.73;7.80;;;5.20;79.00;;;3.47;65.37;101837.53;5009864;28;20030;-89
2022/03/01 01:38:03;;;;;;;15.50;8.07;;;5.30;78.40;;;3.53;65.10;101845.16;5009208;28;20115;-89
2022/03/01 01:40:35;;;;;;;13.02;7.20;;;5.30;78.40;;;3.58;64.63;101846.69;5009950;28;20041;-88
2022/03/01 01:43:05;;;;;;;12.90;7.32;;;5.30;78.50;;;3.61;65.12;101838.41;5009266;28;20405;-88
2022/03/01 01:45:34;;;;;;;15.80;8.70;;;5.30;78.40;;;3.62;64.57;101835.59;5010354;28;20048;-89
2022/03/01 01:48:03;;;;;;;15.13;7.78;;;5.30;78.30;;;3.67;64.68;101832.59;5001369;28;20125;-89
2022/03/01 01:50:33;;;;;;;16.73;8.20;;;5.30;78.40;;;3.65;64.29;101839.91;4989558;28;20042;-88
2022/03/01 01:53:00;;;;;;;12.77;7.80;;;5.30;77.90;;;3.67;64.23;101837.97;4989311;28;20052;-88
2022/03/01 01:55:28;;;;;;;12.73;7.35;;;5.30;77.80;;;3.77;64.85;101846.25;4973022;28;20039;-88
2022/03/01 01:57:58;;;;;;;14.68;8.18;;;5.30;77.60;;;3.75;63.50;101835.63;4990927;28;20105;-88
2022/03/01 02:00:46;;;;;;;13.88;7.43;;;5.40;77.40;;;3.84;64.08;101836.78;4989991;28;20492;-88
2022/03/01 02:03:13;;;;;;;12.07;7.20;;;5.40;77.00;;;3.89;64.12;101837.34;4989030;28;20058;-87
2022/03/01 02:05:40;;;;;;;14.77;7.60;;;5.40;76.90;;;3.90;63.06;101823.75;4972182;28;20073;-89
2022/03/01 02:08:08;;;;;;;13.48;7.45;;;5.50;76.60;;;3.96;62.85;101825.16;4990317;28;20077;-88
2022/03/01 02:10:35;;;;;;;14.52;8.00;;;5.50;76.50;;;4.01;63.35;101820.28;4989372;28;20050;-88
2022/03/01 02:13:04;;;;;;;11.65;7.00;;;5.50;76.00;;;4.01;63.19;101819.44;4990764;28;20125;-89
2022/03/01 02:15:31;;;;;;;12.75;7.47;;;5.60;76.70;;;4.04;64.05;101813.84;4972864;28;20042;-87
2022/03/01 02:17:58;;;;;;;13.30;7.53;;;5.60;76.90;;;4.06;62.63;101817.28;4989966;28;20143;-88
2022/03/01 02:20:29;;;;;;;17.38;8.00;;;5.60;76.70;;;4.05;63.25;101805.63;4987902;28;20046;-89
2022/03/01 02:22:58;;;;;;;11.77;7.23;;;5.60;76.50;;;4.04;62.46;101803.91;4989910;28;20038;-88
2022/03/01 02:25:25;;;;;;;13.30;7.90;;;5.60;76.00;;;4.09;62.84;101806.25;4990438;28;20504;-88
2022/03/01 02:27:52;;;;;;;13.10;7.50;;;5.60;76.70;;;4.06;62.82;101804.66;4990393;28;20400;-87
2022/03/01 02:30:20;;;;;;;14.18;7.68;;;5.60;76.10;;;4.09;62.85;101803.56;4988441;28;20066;-88
2022/03/01 02:32:48;;;;;;;13.82;8.10;;;5.70;75.80;;;4.11;62.40;101798.94;4972291;28;20189;-88
2022/03/01 02:35:15;;;;;;;15.82;8.40;;;5.70;75.60;;;4.19;62.11;101798.38;4989501;28;20041;-87
2022/03/01 02:37:45;;;;;;;14.15;7.95;;;5.70;75.30;;;4.24;63.28;101798.91;4990233;28;20038;-89
2022/03/01 02:40:13;;;;;;;14.10;7.72;;;5.70;75.70;;;4.27;62.94;101796.84;4989805;28;20038;-88
2022/03/01 02:42:45;;;;;;;14.25;8.13;;;5.80;75.60;;;4.29;62.38;101785.97;4990057;28;20124;-88
2022/03/01 02:45:16;;;;;;;12.80;7.78;;;5.80;75.40;;;4.26;62.16;101787.03;4985192;28;20054;-88
2022/03/01 02:47:44;;;;;;;13.77;8.25;;;5.80;75.70;;;4.30;62.38;101798.44;4981220;28;20049;-88
2022/03/01 02:50:13;;;;;;;13.52;7.78;;;5.80;75.70;;;4.31;62.49;101792.09;5011262;28;20119;-88
2022/03/01 02:52:40;;;;;;;14.27;8.68;;;5.80;75.10;;;4.33;62.48;101783.91;5013386;28;20124;-88
2022/03/01 02:55:11;;;;;;;16.20;7.93;;;5.80;75.00;;;4.33;61.27;101789.31;5012946;28;20073;-88
2022/03/01 02:57:38;;;;;;;14.15;7.85;;;5.80;75.20;;;4.34;62.00;101793.69;5013512;28;20052;-89
2022/03/01 03:00:07;;;;;;;14.23;7.72;;;5.80;74.90;;;4.31;61.01;101797.50;5013078;28;20045;-89
2022/03/01 03:02:34;;;;;;;13.95;8.02;;;5.80;74.70;;;4.31;61.55;101792.97;5013513;28;20048;-87
2022/03/01 03:05:01;;;;;;;14.57;7.90;;;5.90;74.90;;;4.34;61.76;101797.28;5012475;28;20042;-88
2022/03/01 03:07:29;;;;;;;16.00;8.23;;;5.90;75.10;;;4.33;61.81;101792.84;5013263;28;20097;-87
2022/03/01 03:09:59;;;;;;;17.20;8.25;;;5.90;75.00;;;4.36;61.72;101797.16;5012774;28;20492;-87
2022/03/01 03:12:28;;;;;;;13.23;8.10;;;5.90;75.20;;;4.41;62.04;101797.69;5012483;28;20065;-88
2022/03/01 03:14:55;;;;;;;15.98;8.40;;;5.90;76.00;;;4.42;61.79;101802.09;5013188;28;20121;-87
2022/03/01 03:17:23;;;;;;;11.88;8.05;;;5.90;75.50;;;4.40;61.07;101798.63;5012998;28;20488;-87
2022/03/01 03:19:50;;;;;;;14.55;8.00;;;5.90;74.90;;;4.43;60.87;101793.03;5012095;28;20078;-88
2022/03/01 03:22:18;;;;;;;13.55;7.78;;;5.90;75.40;;;4.44;61.84;101783.97;5012646;28;20042;-88
2022/03/01 03:24:45;;;;;;;14.43;8.13;;;5.90;75.10;;;4.48;62.47;101786.31;5012676;28;20133;-88
2022/03/01 03:27:12;;;;;;;14.25;8.18;;;5.90;75.30;;;4.50;62.00;101784.38;5012496;28;20577;-87
2022/03/01 03:29:41;;;;;;;13.50;7.93;;;6.00;75.80;;;4.49;61.50;101785.38;5012844;28;20052;-88
2022/03/01 03:32:09;;;;;;;16.73;8.50;;;5.90;75.30;;;4.49;61.74;101771.88;5012536;28;20446;-87
2022/03/01 03:34:36;;;;;;;14.07;7.72;;;5.90;75.70;;;4.49;61.93;101777.28;5012362;28;20056;-88
2022/03/01 03:37:04;;;;;;;13.90;7.68;;;5.90;74.80;;;4.53;60.60;101777.88;5012657;28;20056;-88
2022/03/01 03:39:32;;;;;;;13.63;8.20;;;6.00;74.50;;;4.55;60.36;101764.28;5012760;28;20038;-88
2022/03/01 03:41:59;;;;;;;13.55;7.32;;;6.00;74.90;;;4.52;61.33;101770.78;5012159;28;20053;-88
2022/03/01 03:44:27;;;;;;;12.65;7.97;;;6.00;74.80;;;4.55;61.54;101770.56;5012456;28;20039;-88
2022/03/01 03:46:55;;;;;;;14.48;7.63;;;6.00;74.40;;;4.57;60.74;101763.22;5012475;28;20088;-88
2022/03/01 03:49:24;;;;;;;15.25;8.43;;;6.00;74.90;;;4.58;61.56;101764.09;5010640;28;20568;-88
2022/03/01 03:51:51;;;;;;;14.15;7.88;;;6.00;74.60;;;4.60;61.19;101765.69;5011538;28;20341;-87
2022/03/01 03:54:18;;;;;;;13.90;7.78;;;6.00;74.40;;;4.60;61.08;101759.44;5012494;28;20116;-88
2022/03/01 03:56:45;;;;;;;13.43;7.80;;;6.00;74.70;;;4.59;60.82;101760.41;5011945;28;20046;-87
2022/03/01 03:59:13;;;;;;;12.32;7.53;;;6.00;74.50;;;4.55;60.25;101759.78;5012141;28;20064;-87
2022/03/01 04:01:40;;;;;;;11.82;6.97;;;6.00;74.10;;;4.53;61.56;101759.00;5011414;28;20124;-88
2022/03/01 04:04:09;;;;;;;15.00;7.75;;;6.00;74.80;;;4.50;61.33;101760.13;5011815;28;20041;-88
2022/03/01 04:06:37;;;;;;;12.50;7.72;;;6.00;74.60;;;4.49;61.53;101757.53;5012120;28;20566;-88
2022/03/01 04:09:05;;;;;;;14.43;8.07;;;6.00;74.50;;;4.46;59.86;101760.47;5011852;28;20690;-88
2022/03/01 04:11:33;;;;;;;14.48;8.10;;;6.00;74.50;;;4.48;61.12;101763.91;5011533;28;20045;-88
2022/03/01 04:14:01;;;;;;;14.48;8.40;;;6.00;74.90;;;4.48;60.64;101758.53;5011959;28;20076;-88
2022/03/01 04:16:29;;;;;;;14.60;8.20;;;5.90;73.80;;;4.51;61.29;101755.56;5011948;28;20061;-87
2022/03/01 04:18:56;;;;;;;13.18;7.82;;;5.90;74.80;;;4.48;61.32;101762.06;5010194;28;20054;-88
2022/03/01 04:21:25;;;;;;;13.20;7.38;;;5.90;74.30;;;4.50;61.57;101762.81;5011683;28;20065;-87
2022/03/01 04:23:52;;;;;;;15.88;8.10;;;6.00;74.80;;;4.51;60.79;101758.28;5012054;28;20399;-88
2022/03/01 04:26:19;;;;;;;14.68;7.80;;;6.00;74.80;;;4.49;60.85;101760.22;5010145;28;20052;-88
2022/03/01 04:28:47;;;;;;;14.73;8.02;;;6.00;74.50;;;4.47;60.89;101763.06;5010652;28;20684;-88
2022/03/01 04:31:14;;;;;;;14.95;8.10;;;6.00;74.40;;;4.47;60.25;101749.59;5011446;28;20037;-88
2022/03/01 04:33:41;;;;;;;14.95;8.10;;;6.00;74.80;;;4.49;60.84;101763.81;5011678;28;20085;-88
2022/03/01 04:36:09;;;;;;;13.05;8.07;;;6.00;74.40;;;4.51;60.74;101758.28;5010233;28;20046;-88
2022/03/01 04:39:29;;;;;;;13.95;8.13;;;6.00;74.90;;;4.52;60.50;101762.69;5011047;28;20045;-88
2022/03/01 04:45:27;;;;;;;14.68;8.02;;;6.00;74.40;;;4.54;61.27;101763.44;5000822;28;20143;-88
2022/03/01 04:48:23;;;;;;;14.00;8.38;;;6.10;74.40;;;4.57;60.01;101763.22;5006699;28;20503;-88
2022/03/01 04:51:21;;;;;;;16.88;8.45;;;6.00;74.50;;;4.53;60.50;101767.09;5006831;28;20047;-88
2022/03/01 04:53:53;;;;;;;13.82;8.02;;;6.00;74.20;;;4.49;60.58;101760.22;5002684;28;20038;-89
2022/03/01 04:56:46;;;;;;;13.27;8.10;;;6.00;74.40;;;4.46;61.16;101761.31;5011347;28;20054;-88
2022/03/01 04:59:15;;;;;;;15.93;8.73;;;6.00;74.90;;;4.47;61.27;101767.56;5011230;28;20046;-88
2022/03/01 05:01:43;;;;;;;15.65;8.65;;;6.00;74.90;;;4.45;60.28;101756.88;5010942;28;20420;-88
2022/03/01 05:04:15;;;;;;;17.92;8.30;;;6.00;75.10;;;4.43;61.02;101769.63;5009550;28;20145;-88
2022/03/01 05:06:42;;;;;;;12.65;8.07;;;6.00;74.80;;;4.42;59.12;101767.06;5011113;28;20664;-88
2022/03/01 05:09:12;;;;;;;13.80;8.40;;;6.00;74.10;;;4.43;60.90;101763.38;5010728;28;20073;-88
2022/03/01 05:11:39;;;;;;;15.85;8.45;;;6.00;74.50;;;4.41;61.40;101762.63;5009566;28;20120;-88
2022/03/01 05:14:07;;;;;;;16.63;8.43;;;6.00;75.30;;;4.42;60.17;101758.97;5009931;28;20045;-88
2022/03/01 05:16:34;;;;;;;15.48;8.93;;;6.00;75.20;;;4.36;61.00;101754.03;5010632;28;20044;-88
2022/03/01 05:19:01;;;;;;;13.23;7.93;;;6.00;74.70;;;4.36;60.00;101759.41;5010576;28;20136;-88
2022/03/01 05:21:30;;;;;;;15.82;8.93;;;5.90;74.70;;;4.40;60.47;101756.41;5009880;28;20077;-88
2022/03/01 05:23:58;;;;;;;15.85;8.40;;;5.90;74.70;;;4.39;60.91;101756.50;5009421;28;20065;-88
2022/03/01 05:26:36;;;;;;;15.13;8.90;;;6.00;74.60;;;4.39;60.51;101760.06;5010687;28;20570;-87
2022/03/01 05:29:07;;;;;;;16.73;8.70;;;6.00;74.50;;;4.41;61.25;101762.63;5010653;28;20126;-88
2022/03/01 05:31:35;;;;;;;14.88;8.10;;;6.00;74.10;;;4.39;60.63;101765.44;5009801;28;20168;-88
2022/03/01 05:34:02;;;;;;;15.13;8.88;;;6.00;74.80;;;4.41;61.06;101773.41;5010107;28;20499;-88
2022/03/01 05:36:30;;;;;;;17.58;8.70;;;6.00;74.70;;;4.43;60.84;101769.63;5025052;28;20104;-88
2022/03/01 05:38:57;;;;;;;14.90;8.70;;;5.90;74.70;;;4.41;60.65;101773.41;5010456;28;20064;-88
2022/03/01 05:41:29;;;;;;;15.73;9.02;;;6.00;74.40;;;4.45;61.07;101766.81;5009994;28;20606;-88
2022/03/01 05:43:56;;;;;;;16.27;9.20;;;6.00;74.30;;;4.48;60.93;101775.53;5009972;28;20129;-88
2022/03/01 05:46:23;;;;;;;15.32;8.60;;;6.00;74.30;;;4.48;60.66;101778.25;5010651;28;20060;-88
2022/03/01 05:48:51;;;;;;;16.63;8.77;;;6.00;74.50;;;4.48;59.68;101780.09;4995159;28;20082;-88
2022/03/01 05:51:18;;;;;;;16.40;9.30;;;6.00;74.20;;;4.48;60.42;101769.31;4989841;28;20671;-87
2022/03/01 05:53:46;;;;;;;18.33;9.68;;;6.00;74.00;;;4.48;60.72;101770.16;4972791;28;20042;-88
2022/03/01 05:56:14;;;;;;;19.42;9.98;;;6.00;74.10;;;4.48;60.49;101780.09;4973120;28;20046;-87
2022/03/01 05:58:42;;;;;;;20.45;10.55;;;6.00;74.40;;;4.48;60.58;101775.53;4990259;28;20121;-88
2022/03/01 06:01:12;;;;;;;21.67;10.63;;;6.00;74.70;;;4.49;60.32;101777.28;4988528;28;20133;-88
2022/03/01 06:03:39;;;;;;;19.30;11.65;;;6.00;74.60;;;4.49;60.73;101771.00;4989380;28;20046;-88
2022/03/01 06:06:06;;;;;;;21.92;10.93;;;6.00;75.00;;;4.49;59.91;101776.41;4988629;28;20077;-87
2022/03/01 06:08:33;;;;;;;19.48;10.05;;;6.00;74.30;;;4.50;60.40;101778.97;4988920;28;20046;-88
2022/03/01 06:11:01;;;;;;;21.08;10.57;;;6.00;74.50;;;4.51;61.31;101774.44;4972496;28;20527;-88
2022/03/01 06:13:28;;;;;;;20.25;10.23;;;6.00;74.80;;;4.49;61.10;101771.00;4990212;28;20065;-89
2022/03/01 06:15:59;;;;;;;17.35;10.05;;;6.00;74.80;;;4.48;60.55;101769.31;4972718;28;20136;-86
2022/03/01 06:18:27;;;;;;;15.90;9.68;;;6.00;75.00;;;4.47;61.10;101778.34;4989933;28;20050;-88
2022/03/01 06:20:54;;;;;;;17.25;9.48;;;6.00;75.10;;;4.42;60.23;101775.16;4971946;28;20045;-86
2022/03/01 06:23:21;;;;;;;19.17;9.73;;;6.00;74.60;;;4.44;61.21;101783.97;4988724;28;20061;-83
2022/03/01 06:25:49;;;;;;;16.70;9.98;;;6.00;74.30;;;4.47;60.71;101778.34;4990160;28;20445;-84
2022/03/01 06:28:16;;;;;;;16.00;9.23;;;6.00;74.90;;;4.50;60.67;101778.13;4990164;28;20042;-84
2022/03/01 06:30:43;;;;;;;17.05;10.02;;;5.90;75.20;;;4.50;60.74;101783.53;4989624;28;20411;-84
2022/03/01 06:33:12;;;;;;;17.17;8.95;;;6.00;74.70;;;4.49;59.88;101781.78;4988568;28;20419;-84
2022/03/01 06:35:39;;;;;;;20.63;9.65;;;6.00;74.80;;;4.44;59.77;101779.44;4989711;28;20045;-86
2022/03/01 06:38:07;;;;;;;16.83;8.63;;;6.00;74.20;;;4.43;60.40;101774.16;4989783;28;20057;-85
2022/03/01 06:40:34;;;;;;;23.00;9.20;;;6.00;74.90;;;4.44;60.08;101778.59;4971802;28;20130;-84
2022/03/01 06:43:01;;;;;;;22.10;9.75;;;6.00;75.00;;;4.44;60.58;101784.84;4984880;28;20116;-85
2022/03/01 06:45:29;;;;;;;21.08;10.50;;;6.00;74.40;;;4.44;60.03;101782.16;4989387;28;20042;-84
2022/03/01 06:47:56;;;;;;;19.73;9.77;;;6.00;74.40;;;4.51;59.93;101787.94;4990251;28;20092;-89
2022/03/01 06:50:26;;;;;;;16.88;9.40;;;6.00;74.10;;;4.54;60.32;101794.94;4987972;28;20054;-89
2022/03/01 06:52:54;;;;;;;17.17;9.00;;;6.30;73.90;;;4.60;60.23;101791.78;4988935;28;20046;-89
2022/03/01 06:55:23;;;;;;;16.60;9.45;;;6.10;73.90;;;4.59;60.27;101796.31;4972546;28;20039;-88
2022/03/01 06:57:50;;;;;;;16.42;9.13;;;6.10;74.10;;;4.66;58.88;101803.00;4988273;28;20133;-89
2022/03/01 07:00:51;;;;;;;;;;;;;;;;;;;;;
2022/03/01 07:03:46;;;;;;;17.40;9.48;;;6.20;74.00;;;4.77;59.48;101794.06;4980873;28;20038;-90
2022/03/01 07:07:06;;;;;;;17.45;9.00;;;6.20;73.90;;;4.83;58.37;101795.44;4977497;28;20397;-88
2022/03/01 07:10:19;;;;;;;20.05;10.23;;;6.30;73.90;;;4.78;59.46;101782.31;4982693;28;20070;-90
2022/03/01 07:15:40;;;;;;;19.00;10.07;;;6.30;73.40;;;4.79;59.55;101783.19;4958817;28;20571;-89
2022/03/01 07:18:12;;;;;;;;;;;6.30;72.50;;;4.80;59.29;101785.75;4964679;28;20096;-89
2022/03/01 07:20:40;;;;;;;18.77;9.90;;;6.20;73.30;;;4.77;58.17;101777.91;4987006;28;19928;-89
2022/03/01 07:23:09;;;;;;;16.85;9.48;;;6.20;72.70;;;4.78;59.54;101776.03;4964616;28;20082;-89
2022/03/01 07:25:42;;;;;;;18.10;10.02;;;6.30;72.40;;;4.83;59.22;101779.28;4983863;28;20145;-89
2022/03/01 07:28:10;;;;;;;17.50;9.90;;;6.30;73.00;;;4.84;59.00;101781.00;4966295;28;20468;-89
2022/03/01 07:30:39;;;;;;;17.02;8.60;;;6.40;73.30;;;4.86;58.66;101785.28;4968316;28;20136;-90
2022/03/01 07:33:07;;;;;;;16.50;9.50;;;6.30;72.80;;;4.92;59.49;101781.28;4970827;28;20810;-90
2022/03/01 07:35:34;;;;;;;17.63;8.88;;;6.30;72.90;;;4.97;57.86;101780.91;4986757;28;20510;-88
2022/03/01 07:38:01;;;;;;;16.90;9.20;;;6.40;72.20;;;5.01;58.54;101785.13;4989424;28;20108;-89
2022/03/01 07:40:30;;;;;;;19.30;8.77;;;6.40;72.60;;;5.03;58.82;101780.47;4973359;28;20084;-88
2022/03/01 07:42:58;;;;;;;22.90;10.48;;;6.40;72.40;;;5.09;59.08;101782.69;4988963;28;20054;-89
2022/03/01 07:45:25;;;;;;;17.20;9.07;;;6.40;72.70;;;5.14;59.01;101785.91;4979980;28;20073;-89
2022/03/01 07:47:53;;;;;;;17.38;9.13;;;6.50;72.40;;;5.16;58.57;101785.75;4982105;28;20138;-89
2022/03/01 07:50:21;;;;;;;17.17;9.02;;;6.50;71.60;;;5.25;58.30;101795.84;5007899;28;20559;-89
2022/03/01 07:52:48;;;;;;;18.25;9.30;;;6.60;72.20;;;5.29;58.13;101783.84;5010627;28;20527;-89
2022/03/01 07:55:15;;;;;;;16.55;9.52;;;6.60;70.70;;;5.37;57.38;101789.50;5017459;28;20052;-88
2022/03/01 07:57:44;;;;;;;19.48;9.43;;;6.70;72.00;;;5.50;58.46;101786.69;5023026;28;20050;-87
2022/03/01 08:00:13;;;;;;;21.45;9.50;;;6.70;72.70;;;5.60;57.22;101792.25;5026786;28;20100;-89
2022/03/01 08:02:41;;;;;;;16.45;9.40;;;6.80;70.50;;;5.67;57.11;101796.16;5011791;28;20037;-88
2022/03/01 08:05:10;;;;;;;18.15;9.20;;;6.90;70.90;;;5.77;56.98;101778.28;5012622;28;20415;-88
2022/03/01 08:07:38;;;;;;;19.13;9.52;;;7.00;70.90;;;5.85;56.80;101783.91;5013870;28;20054;-85
2022/03/01 08:10:06;;;;;;;19.35;9.27;;;7.00;69.20;;;5.95;57.17;101780.47;5010855;28;20065;-84
2022/03/01 08:12:33;;;;;;;17.85;9.07;;;7.10;69.50;;;5.99;55.80;101788.25;5010278;28;20504;-85
2022/03/01 08:15:02;;;;;;;16.45;8.75;;;7.20;69.30;;;5.99;54.96;101787.38;5005829;28;20046;-87
2022/03/01 08:17:29;;;;;;;17.25;9.48;;;7.30;68.10;;;5.98;56.09;101793.78;5012337;28;20137;-87
2022/03/01 08:19:57;;;;;;;16.73;9.15;;;7.30;68.50;;;6.00;56.03;101792.69;5010654;28;20574;-87
2022/03/01 08:22:24;;;;;;;18.98;8.80;;;7.30;68.70;;;6.03;55.46;101792.41;5010055;28;20042;-87
2022/03/01 08:24:51;;;;;;;16.05;9.20;;;7.30;69.00;;;5.99;54.83;101787.38;5010873;28;20084;-88
2022/03/01 08:27:19;;;;;;;18.52;9.38;;;7.40;68.00;;;6.05;56.15;101795.00;5045248;28;20123;-85
2022/03/01 08:29:46;;;;;;;17.02;9.13;;;7.40;69.30;;;6.07;54.89;101790.31;5016831;28;20042;-85
2022/03/01 08:32:15;;;;;;;16.98;9.40;;;7.40;67.80;;;6.12;54.86;101793.53;5009872;28;20049;-85
2022/03/01 08:34:42;;;;;;;17.30;9.13;;;7.50;68.80;;;6.16;55.01;101792.28;5016757;28;20385;-87
2022/03/01 08:37:09;;;;;;;15.43;8.95;;;7.50;67.00;;;6.21;54.54;101784.66;5011062;28;20053;-87
2022/03/01 08:39:36;;;;;;;18.58;10.10;;;7.50;67.70;;;6.27;55.14;101799.53;5009251;28;20466;-87
2022/03/01 08:42:04;;;;;;;17.02;9.10;;;7.60;66.90;;;6.31;54.89;101797.44;5000463;28;20049;-88
2022/03/01 08:44:32;;;;;;;17.80;8.93;;;7.60;66.90;;;6.40;54.18;101794.00;5005249;28;20041;-88
2022/03/01 08:46:59;;;;;;;19.42;8.77;;;7.70;65.50;;;6.51;54.26;101801.19;5012834;28;20097;-90
2022/03/01 08:49:28;;;;;;;18.27;8.75;;;7.80;65.90;;;6.57;52.32;101806.97;5026265;28;20041;-91
2022/03/01 08:51:55;;;;;;;17.60;8.77;;;7.90;63.40;;;6.69;52.59;101810.50;5009027;28;20401;-88
2022/03/01 08:54:23;;;;;;;22.23;9.30;;;7.90;64.10;;;6.75;51.92;101814.56;5013971;28;20609;-88
2022/03/01 08:56:50;;;;;;;16.33;7.95;;;8.00;63.50;;;6.83;52.70;101817.47;5028222;28;20070;-89
2022/03/01 08:59:18;;;;;;;13.45;7.70;;;8.10;63.10;;;6.87;50.89;101816.22;5009124;28;20482;-88
2022/03/01 09:01:45;;;;;;;14.90;7.93;;;8.20;62.20;;;6.91;50.82;101824.94;5004981;22;20440;-83
2022/03/01 09:04:13;;;;;;;19.48;8.68;;;8.20;61.60;;;6.91;49.86;101820.41;4983997;28;20042;-83
2022/03/01 09:06:41;;;;;;;15.77;7.53;;;8.20;60.70;;;6.93;50.02;101821.13;4994453;28;20050;-83
2022/03/01 09:09:09;;;;;;;15.48;8.05;;;8.30;61.50;;;6.95;49.34;101821.00;4983607;28;20077;-82
2022/03/01 09:11:36;;;;;;;15.48;8.73;;;8.30;61.20;;;7.01;49.12;101821.34;4991660;28;20098;-83
2022/03/01 09:14:04;;;;;;;16.42;8.05;;;8.30;60.70;;;7.04;49.17;101820.22;4971359;28;20039;-83
2022/03/01 09:16:32;;;;;;;15.85;8.45;;;8.30;60.40;;;7.04;49.65;101821.09;4969179;28;20404;-82
2022/03/01 09:18:59;;;;;;;15.20;8.23;;;8.40;60.20;;;7.02;49.54;101823.03;4972410;28;20047;-83
2022/03/01 09:21:26;;;;;;;14.50;8.00;;;8.40;59.30;;;7.02;49.15;101833.03;4969572;28;20051;-89
2022/03/01 09:23:55;;;;;;;19.58;7.38;;;8.40;60.60;;;7.08;50.67;101834.34;4970401;28;20101;-84
2022/03/01 09:26:22;;;;;;;20.48;8.60;;;8.40;61.40;;;7.13;49.57;101830.28;4970497;28;20141;-84
2022/03/01 09:28:50;;;;;;;16.50;8.20;;;8.40;62.70;;;7.16;49.15;101830.03;4974071;28;20062;-84
2022/03/01 09:31:17;;;;;;;15.88;7.68;;;8.50;61.80;;;7.20;50.07;101819.78;4990530;28;20488;-84
2022/03/01 09:33:44;;;;;;;15.48;7.95;;;8.50;60.70;;;7.23;48.93;101814.09;4970018;28;20049;-84
2022/03/01 09:36:13;;;;;;;15.27;8.32;;;8.50;60.00;;;7.25;48.15;101806.69;4977836;28;20572;-84
2022/03/01 09:38:41;;;;;;;17.33;7.93;;;8.60;59.90;;;7.22;47.79;101813.25;4971375;28;20822;-84
2022/03/01 09:41:11;;;;;;;16.48;7.47;;;8.50;59.50;;;7.22;48.86;101796.16;4984655;28;20072;-84
2022/03/01 09:43:39;;;;;;;14.38;8.02;;;8.50;59.40;;;7.23;48.72;101801.44;4970193;28;20104;-84
2022/03/01 09:46:08;;;;;;;14.80;7.97;;;8.60;60.20;;;7.31;49.73;101797.19;4969328;28;20513;-84
2022/03/01 09:48:36;;;;;;;18.70;7.47;;;8.60;60.20;;;7.33;50.37;101801.50;4970523;28;20078;-85
2022/03/01 09:51:08;;;;;;;15.10;7.70;;;8.60;61.60;;;7.36;48.88;101803.94;4969529;28;20042;-84
2022/03/01 09:53:36;;;;;;;;;;;8.60;60.40;;;7.32;49.53;101816.03;4970565;28;20058;-84
2022/03/01 09:56:04;;;;;;;16.77;8.30;;;8.60;60.70;;;7.33;49.50;101819.59;4974604;28;19922;-84
2022/03/01 09:58:33;;;;;;;15.07;7.78;;;8.60;61.40;;;7.34;49.30;101808.63;4967056;28;20043;-84
2022/03/01 10:01:01;;;;;;;14.85;8.23;;;8.60;59.50;;;7.35;49.80;101818.50;4956137;28;20560;-84
2022/03/01 10:03:29;;;;;;;14.88;8.05;;;8.70;60.60;;;7.39;49.85;101808.25;4969871;28;20573;-84
2022/03/01 10:06:07;;;;;;;13.52;7.53;;;8.70;60.70;;;7.39;49.59;101814.53;4968296;28;20074;-87
2022/03/01 10:08:35;;;;;;;17.42;7.75;;;8.70;59.90;;;7.45;48.87;101815.84;4973466;28;20121;-87
2022/03/01 10:11:03;;;;;;;14.15;8.07;;;8.70;60.10;;;7.50;49.46;101826.28;4975336;28;20046;-87
2022/03/01 10:13:34;;;;;;;17.70;8.55;;;8.80;59.60;;;7.51;48.08;101831.56;4969632;28;20043;-87
2022/03/01 10:16:06;;;;;;;13.52;7.70;;;8.80;59.20;;;7.57;48.27;101828.31;4969188;28;20047;-87
2022/03/01 10:18:38;;;;;;;16.00;8.63;;;8.80;59.40;;;7.67;47.30;101839.22;4970437;28;20121;-87
2022/03/01 10:21:06;;;;;;;;;;;8.90;58.00;;;7.80;49.04;101839.00;4982615;28;20047;-87
2022/03/01 10:23:34;;;;;;;17.27;8.10;;;9.00;60.00;;;7.88;48.01;101827.50;4969700;28;19930;-87
2022/03/01 10:26:14;;;;;;;16.48;8.10;;;9.10;59.00;;;7.94;47.68;101817.00;4977647;28;20520;-87
2022/03/01 10:28:44;;;;;;;13.82;7.68;;;9.10;58.50;;;8.00;47.88;101821.84;5002576;28;20420;-87
2022/03/01 10:31:15;;;;;;;15.13;7.67;;;9.20;59.60;;;8.08;48.26;101826.59;4964607;28;20058;-87
2022/03/01 10:33:54;;;;;;;18.55;8.38;;;9.30;58.90;;;8.07;47.10;101814.03;4969224;28;20298;-87
2022/03/01 10:36:23;;;;;;;32.85;9.00;;;9.30;58.00;;;8.08;47.35;101821.19;4973887;28;20125;-86